Time;durP1;ratioP1;P1;durP2;ratioP2;P2;SDS_P1;SDS_P2;PMS_P1;PMS_P2;Temp;Humidity;BMP_temperature;BMP_pressure;BME280_temperature;BME280_humidity;BME280_pressure;Samples;Min_cycle;Max_cycle;Signal;HPM_P1;HPM_P2
2023/06/25 00:02:00;;;;;;;1.40;1.30;;;24.60;47.90;;;;;;5028494;28;21217;-76
2023/06/25 00:04:26;;;;;;;1.23;1.13;;;24.60;48.00;;;;;;5029577;28;20258;-76
2023/06/25 00:06:51;;;;;;;1.30;1.20;;;24.60;48.00;;;;;;5027655;28;20194;-76
2023/06/25 00:09:17;;;;;;;1.23;1.13;;;24.60;48.00;;;;;;5030896;28;20673;-76
2023/06/25 00:11:42;;;;;;;1.40;1.30;;;24.60;48.00;;;;;;5040315;28;20170;-76
2023/06/25 00:14:08;;;;;;;1.40;1.30;;;24.60;48.00;;;;;;5030297;28;20776;-76
2023/06/25 00:16:34;;;;;;;1.40;1.30;;;24.60;48.00;;;;;;5040501;28;20602;-76
2023/06/25 00:19:00;;;;;;;1.50;1.40;;;24.60;47.90;;;;;;5030104;28;20768;-75
2023/06/25 00:21:26;;;;;;;1.57;1.47;;;24.60;47.90;;;;;;5039992;28;20442;-77
2023/06/25 00:23:52;;;;;;;1.50;1.40;;;24.60;48.00;;;;;;5029516;28;20438;-76
2023/06/25 00:26:17;;;;;;;1.50;1.40;;;24.60;47.90;;;;;;5026769;28;20487;-77
2023/06/25 00:28:44;;;;;;;1.97;1.20;;;24.60;47.90;;;;;;5029852;28;20189;-76
2023/06/25 00:31:12;;;;;;;1.40;1.30;;;24.60;47.90;;;;;;5026389;28;20186;-76
2023/06/25 00:33:38;;;;;;;1.60;1.50;;;24.60;47.90;;;;;;5029628;28;20435;-76
2023/06/25 00:36:08;;;;;;;1.40;1.30;;;24.60;48.00;;;;;;5025175;28;20562;-76
2023/06/25 00:38:38;;;;;;;1.40;1.30;;;24.60;48.00;;;;;;5029842;28;20183;-76
2023/06/25 00:41:10;;;;;;;1.30;1.20;;;24.60;48.00;;;;;;5025994;28;20523;-76
2023/06/25 00:43:41;;;;;;;1.43;1.33;;;24.60;48.00;;;;;;5028612;28;20545;-75
2023/06/25 00:46:12;;;;;;;1.47;1.37;;;24.60;47.90;;;;;;5024374;28;20468;-75
2023/06/25 00:48:45;;;;;;;1.90;1.67;;;24.60;47.90;;;;;;5028915;28;20432;-76
2023/06/25 00:51:14;;;;;;;1.47;1.37;;;24.60;48.00;;;;;;5023966;28;20432;-76
2023/06/25 00:53:40;;;;;;;1.40;1.30;;;24.60;48.00;;;;;;5029729;28;20436;-76
2023/06/25 00:56:05;;;;;;;1.60;1.50;;;24.60;48.00;;;;;;5026781;28;20788;-76
2023/06/25 00:58:34;;;;;;;1.30;1.20;;;24.60;48.00;;;;;;5028233;28;20257;-76
2023/06/25 01:01:01;;;;;;;1.57;1.47;;;24.60;48.00;;;;;;5024721;28;20191;-76
2023/06/25 01:03:36;;;;;;;1.43;1.33;;;24.60;48.00;;;;;;5029106;28;20916;-75
2023/06/25 01:06:05;;;;;;;1.67;1.57;;;24.60;48.00;;;;;;5024406;28;20468;-76
2023/06/25 01:08:32;;;;;;;1.70;1.60;;;24.60;48.00;;;;;;5028843;28;20438;-76
2023/06/25 01:10:58;;;;;;;1.50;1.40;;;24.60;48.00;;;;;;5024863;28;20445;-76
2023/06/25 01:13:23;;;;;;;1.33;1.23;;;24.60;48.00;;;;;;5023377;28;20561;-76
2023/06/25 01:15:49;;;;;;;1.63;1.53;;;24.60;48.00;;;;;;5023878;28;20665;-76
2023/06/25 01:18:15;;;;;;;1.50;1.40;;;24.60;48.00;;;;;;5028626;28;20302;-76
2023/06/25 01:20:41;;;;;;;1.43;1.33;;;24.60;48.00;;;;;;5026136;28;20191;-75
2023/06/25 01:23:09;;;;;;;1.70;1.60;;;24.60;48.00;;;;;;5042284;28;20308;-76
2023/06/25 01:25:38;;;;;;;1.40;1.30;;;24.60;48.00;;;;;;5025885;28;20471;-76
2023/06/25 01:28:05;;;;;;;1.63;1.53;;;24.60;48.00;;;;;;5028300;28;20969;-76
2023/06/25 01:30:31;;;;;;;1.50;1.40;;;24.60;48.00;;;;;;5026053;28;20815;-76
2023/06/25 01:32:57;;;;;;;1.50;1.40;;;24.60;48.00;;;;;;5024702;28;21106;-76
2023/06/25 01:35:24;;;;;;;1.33;1.23;;;24.50;47.90;;;;;;5025173;28;21015;-76
2023/06/25 01:37:50;;;;;;;1.50;1.40;;;24.60;48.00;;;;;;5025619;28;20466;-76
2023/06/25 01:40:16;;;;;;;1.63;1.53;;;24.60;48.00;;;;;;5025762;28;20975;-76
2023/06/25 01:42:43;;;;;;;1.57;1.47;;;24.60;48.00;;;;;;5025366;28;20256;-76
2023/06/25 01:45:11;;;;;;;1.40;1.30;;;24.60;48.00;;;;;;5037644;28;20432;-76
2023/06/25 01:47:37;;;;;;;1.60;1.50;;;24.60;47.90;;;;;;5023231;28;20497;-76
2023/06/25 01:50:04;;;;;;;1.70;1.60;;;24.60;48.00;;;;;;5025510;28;20441;-76
2023/06/25 01:52:29;;;;;;;1.40;1.30;;;24.60;48.00;;;;;;5025739;28;20525;-76
2023/06/25 01:54:55;;;;;;;1.60;1.50;;;24.60;48.00;;;;;;5025487;28;20471;-76
2023/06/25 01:57:21;;;;;;;1.40;1.30;;;24.50;47.90;;;;;;5027270;28;20256;-76
2023/06/25 01:59:47;;;;;;;1.70;1.60;;;24.60;48.00;;;;;;5026546;28;20214;-76
2023/06/25 02:02:12;;;;;;;1.90;1.80;;;24.50;48.00;;;;;;5025873;28;20491;-76
2023/06/25 02:04:38;;;;;;;1.60;1.50;;;24.50;47.90;;;;;;5025854;28;20191;-76
2023/06/25 02:07:04;;;;;;;1.50;1.40;;;24.50;48.00;;;;;;5027849;28;20187;-76
2023/06/25 02:09:29;;;;;;;1.60;1.50;;;24.50;47.90;;;;;;5016453;28;20230;-75
2023/06/25 02:11:55;;;;;;;1.60;1.50;;;24.50;47.90;;;;;;5013426;28;21201;-75
2023/06/25 02:14:21;;;;;;;1.50;1.40;;;24.50;47.90;;;;;;5032030;28;20248;-76
2023/06/25 02:16:46;;;;;;;1.67;1.57;;;24.50;48.00;;;;;;5009125;28;20275;-76
2023/06/25 02:19:12;;;;;;;1.50;1.40;;;24.50;48.00;;;;;;5022753;28;20218;-76
2023/06/25 02:21:37;;;;;;;1.40;1.30;;;24.50;48.00;;;;;;5014671;28;20222;-75
2023/06/25 02:24:03;;;;;;;1.47;1.37;;;24.50;48.00;;;;;;5020503;28;20260;-76
2023/06/25 02:26:29;;;;;;;1.43;1.33;;;24.50;48.00;;;;;;5012554;28;20683;-76
2023/06/25 02:28:55;;;;;;;1.40;1.30;;;24.50;48.00;;;;;;5020350;28;20259;-77
2023/06/25 02:31:21;;;;;;;1.50;1.40;;;24.50;48.00;;;;;;5006333;28;20227;-76
2023/06/25 02:33:46;;;;;;;1.70;1.60;;;24.50;48.00;;;;;;5010203;28;20222;-76
2023/06/25 02:36:12;;;;;;;1.60;1.50;;;24.50;48.00;;;;;;5020988;28;20488;-76
2023/06/25 02:38:37;;;;;;;1.57;1.47;;;24.50;48.00;;;;;;5010853;28;20214;-76
2023/06/25 02:41:03;;;;;;;1.53;1.43;;;24.50;48.00;;;;;;5018915;28;20221;-75
2023/06/25 02:43:29;;;;;;;1.30;1.20;;;24.50;48.00;;;;;;5012044;28;20310;-75
2023/06/25 02:45:54;;;;;;;1.70;1.60;;;24.50;48.00;;;;;;5014997;28;20683;-76
2023/06/25 02:48:20;;;;;;;1.50;1.40;;;24.50;48.00;;;;;;5018259;28;20215;-77
2023/06/25 02:50:45;;;;;;;1.80;1.70;;;24.50;48.00;;;;;;5013175;28;20230;-76
2023/06/25 02:53:12;;;;;;;1.47;1.37;;;24.50;47.90;;;;;;5012946;28;20222;-76
2023/06/25 02:55:37;;;;;;;1.63;1.53;;;24.50;48.00;;;;;;5008218;28;20245;-76
2023/06/25 02:58:03;;;;;;;1.60;1.50;;;24.50;47.90;;;;;;5020934;28;20998;-76
2023/06/25 03:00:29;;;;;;;1.43;1.33;;;24.50;48.00;;;;;;5006703;28;20215;-76
2023/06/25 03:02:54;;;;;;;1.60;1.50;;;24.50;47.90;;;;;;5000285;28;20226;-76
2023/06/25 03:05:20;;;;;;;1.50;1.40;;;24.50;48.00;;;;;;5012789;28;20826;-76
2023/06/25 03:07:57;;;;;;;1.70;1.60;;;24.50;48.00;;;;;;5015046;28;21289;-76
2023/06/25 03:10:24;;;;;;;1.70;1.43;;;24.50;48.00;;;;;;5017255;28;20685;-76
2023/06/25 03:12:50;;;;;;;1.60;1.50;;;24.50;48.00;;;;;;5018306;28;20440;-77
2023/06/25 03:15:17;;;;;;;1.83;1.73;;;24.50;48.00;;;;;;5015585;28;20950;-76
2023/06/25 03:17:43;;;;;;;1.63;1.53;;;24.50;48.00;;;;;;5014867;28;20222;-76
2023/06/25 03:20:09;;;;;;;1.70;1.60;;;24.50;48.00;;;;;;5019795;28;20482;-77
2023/06/25 03:22:35;;;;;;;1.73;1.63;;;24.50;48.00;;;;;;5012707;28;20249;-76
2023/06/25 03:25:01;;;;;;;1.70;1.60;;;24.50;48.00;;;;;;5002641;28;20574;-75
2023/06/25 03:27:27;;;;;;;1.80;1.70;;;24.50;48.00;;;;;;5013077;28;20254;-76
2023/06/25 03:29:52;;;;;;;1.90;1.80;;;24.50;48.00;;;;;;5015979;28;20566;-76
2023/06/25 03:32:18;;;;;;;1.87;1.77;;;24.50;48.00;;;;;;5008254;28;20222;-76
2023/06/25 03:34:43;;;;;;;2.03;1.93;;;24.50;47.90;;;;;;5016235;28;20222;-76
2023/06/25 03:37:09;;;;;;;1.80;1.70;;;24.50;48.00;;;;;;5006255;28;20226;-75
2023/06/25 03:39:34;;;;;;;1.50;1.40;;;24.50;48.00;;;;;;5012365;28;20213;-75
2023/06/25 03:42:00;;;;;;;1.93;1.83;;;24.50;48.00;;;;;;5018067;28;20388;-76
2023/06/25 03:44:25;;;;;;;2.37;2.27;;;24.50;48.00;;;;;;5011150;28;20209;-75
2023/06/25 03:46:51;;;;;;;2.20;2.10;;;24.50;48.00;;;;;;5013204;28;20230;-75
2023/06/25 03:49:16;;;;;;;2.00;1.90;;;24.50;47.90;;;;;;5014803;28;20222;-76
2023/06/25 03:51:42;;;;;;;2.20;2.10;;;24.50;48.00;;;;;;5015841;28;20260;-76
2023/06/25 03:54:07;;;;;;;2.20;2.10;;;24.50;48.00;;;;;;5020608;28;20210;-75
2023/06/25 03:56:33;;;;;;;2.00;1.90;;;24.50;48.00;;;;;;5017867;28;20207;-76
2023/06/25 03:58:58;;;;;;;2.13;2.03;;;24.50;48.00;;;;;;5019866;28;20297;-75
2023/06/25 04:01:24;;;;;;;2.20;2.10;;;24.50;48.00;;;;;;5018329;28;20314;-75
2023/06/25 04:03:49;;;;;;;2.30;2.20;;;24.50;48.00;;;;;;5021182;28;20238;-75
2023/06/25 04:06:15;;;;;;;2.40;2.30;;;24.50;48.00;;;;;;5018497;28;20227;-76
2023/06/25 04:08:40;;;;;;;2.33;2.23;;;24.50;47.80;;;;;;5012059;28;20745;-76
2023/06/25 04:11:06;;;;;;;2.13;2.03;;;24.50;47.80;;;;;;5015307;28;20301;-75
2023/06/25 04:13:32;;;;;;;2.10;2.00;;;24.50;47.80;;;;;;5023075;28;20265;-75
2023/06/25 04:15:57;;;;;;;1.90;1.80;;;24.50;47.80;;;;;;5003925;28;20245;-75
2023/06/25 04:18:23;;;;;;;2.00;1.90;;;24.50;47.80;;;;;;5010131;28;20236;-76
2023/06/25 04:20:48;;;;;;;2.20;2.10;;;24.50;47.80;;;;;;5017882;28;20223;-76
2023/06/25 04:23:14;;;;;;;2.03;1.93;;;24.50;47.90;;;;;;5008606;28;20867;-75
2023/06/25 04:25:41;;;;;;;2.00;1.90;;;24.50;47.80;;;;;;5019892;28;20238;-75
2023/06/25 04:28:13;;;;;;;2.37;2.27;;;24.50;47.70;;;;;;5017928;28;20226;-76
2023/06/25 04:30:38;;;;;;;2.20;2.10;;;24.50;47.80;;;;;;5019548;28;20464;-76
2023/06/25 04:33:04;;;;;;;2.60;2.40;;;24.50;47.80;;;;;;5017786;28;20502;-75
2023/06/25 04:35:30;;;;;;;2.30;2.20;;;24.50;47.70;;;;;;5016318;28;20329;-75
2023/06/25 04:37:55;;;;;;;2.33;2.13;;;24.50;47.70;;;;;;5014487;28;20672;-75
2023/06/25 04:40:21;;;;;;;2.10;2.00;;;24.50;47.70;;;;;;5022306;28;20223;-76
2023/06/25 04:42:46;;;;;;;2.40;2.30;;;24.50;47.70;;;;;;5019234;28;20313;-76
2023/06/25 04:45:12;;;;;;;2.00;1.90;;;24.50;47.60;;;;;;5012919;28;20286;-76
2023/06/25 04:47:37;;;;;;;2.17;2.07;;;24.50;47.60;;;;;;5018401;28;20225;-76
2023/06/25 04:50:03;;;;;;;3.07;2.13;;;24.50;47.60;;;;;;5021481;28;20306;-76
2023/06/25 04:52:29;;;;;;;2.53;2.33;;;24.50;47.60;;;;;;5017017;28;20227;-75
2023/06/25 04:54:54;;;;;;;1.80;1.70;;;24.50;47.60;;;;;;5024336;28;20230;-76
2023/06/25 04:57:20;;;;;;;2.23;2.13;;;24.50;47.50;;;;;;5023412;28;20687;-76
2023/06/25 04:59:45;;;;;;;2.43;2.33;;;24.50;47.50;;;;;;5018494;28;20231;-76
2023/06/25 05:02:11;;;;;;;2.43;2.23;;;24.60;47.60;;;;;;5018472;28;20280;-76
2023/06/25 05:04:36;;;;;;;2.17;2.07;;;24.60;47.60;;;;;;5018706;28;20218;-76
2023/06/25 05:07:02;;;;;;;2.10;2.00;;;24.60;47.60;;;;;;5023960;28;20584;-75
2023/06/25 05:09:28;;;;;;;1.90;1.80;;;24.60;47.60;;;;;;5031632;28;20230;-75
2023/06/25 05:11:53;;;;;;;2.37;2.17;;;24.60;47.60;;;;;;5014655;28;20222;-76
2023/06/25 05:14:18;;;;;;;2.60;2.43;;;24.60;47.60;;;;;;5022597;28;20861;-76
2023/06/25 05:16:44;;;;;;;1.83;1.73;;;24.60;47.60;;;;;;5016096;28;20241;-76
2023/06/25 05:19:10;;;;;;;2.40;2.30;;;24.60;47.60;;;;;;5022693;28;20229;-76
2023/06/25 05:21:35;;;;;;;2.17;2.07;;;24.60;47.60;;;;;;5021379;28;20729;-76
2023/06/25 05:24:03;;;;;;;1.90;1.80;;;24.60;47.50;;;;;;5020360;28;20234;-76
2023/06/25 05:26:29;;;;;;;1.97;1.87;;;24.60;47.60;;;;;;5011045;28;20249;-75
2023/06/25 05:28:56;;;;;;;1.90;1.80;;;24.60;47.60;;;;;;5021913;28;20466;-76
2023/06/25 05:31:21;;;;;;;2.13;2.03;;;24.60;47.60;;;;;;5008126;28;20456;-75
2023/06/25 05:33:47;;;;;;;2.00;1.90;;;24.60;47.60;;;;;;5019375;28;20838;-76
2023/06/25 05:36:14;;;;;;;1.83;1.73;;;24.60;47.60;;;;;;5019850;28;21436;-75
2023/06/25 05:38:39;;;;;;;1.80;1.70;;;24.60;47.60;;;;;;5022598;28;20788;-76
2023/06/25 05:41:05;;;;;;;1.80;1.70;;;24.60;47.60;;;;;;5014983;28;20460;-76
2023/06/25 05:43:30;;;;;;;2.03;1.93;;;24.60;47.60;;;;;;5016432;28;20655;-75
2023/06/25 05:45:56;;;;;;;2.10;2.00;;;24.70;47.70;;;;;;5012267;28;20231;-75
2023/06/25 05:48:21;;;;;;;1.93;1.83;;;24.60;47.60;;;;;;5002786;28;20223;-76
2023/06/25 05:50:47;;;;;;;1.80;1.70;;;24.60;47.60;;;;;;5033107;28;20716;-75
2023/06/25 05:53:12;;;;;;;1.87;1.77;;;24.60;48.30;;;;;;5019276;28;20237;-76
2023/06/25 05:55:38;;;;;;;2.00;1.90;;;24.70;47.70;;;;;;5020149;28;20238;-75
2023/06/25 05:58:04;;;;;;;2.00;1.90;;;24.70;47.70;;;;;;5021833;28;20226;-76
2023/06/25 06:00:29;;;;;;;2.00;1.90;;;24.70;47.70;;;;;;5009466;28;20226;-75
2023/06/25 06:02:55;;;;;;;1.93;1.83;;;24.70;47.70;;;;;;5019080;28;20234;-76
2023/06/25 06:05:20;;;;;;;2.17;2.07;;;24.70;47.70;;;;;;5009282;28;20276;-76
2023/06/25 06:07:46;;;;;;;1.80;1.70;;;24.70;47.70;;;;;;5020378;28;20692;-76
2023/06/25 06:10:15;;;;;;;1.97;1.87;;;24.70;47.70;;;;;;5021644;28;20841;-76
2023/06/25 06:12:40;;;;;;;1.90;1.80;;;24.70;47.70;;;;;;5008774;28;20222;-75
2023/06/25 06:15:06;;;;;;;1.83;1.73;;;24.70;47.70;;;;;;5016744;28;20468;-75
2023/06/25 06:17:32;;;;;;;1.87;1.77;;;24.70;47.70;;;;;;5031032;28;20609;-75
2023/06/25 06:19:58;;;;;;;1.77;1.67;;;24.70;47.70;;;;;;5012982;28;20470;-76
2023/06/25 06:22:23;;;;;;;1.90;1.80;;;24.70;47.70;;;;;;5006704;28;20343;-75
2023/06/25 06:24:49;;;;;;;1.70;1.60;;;24.70;47.70;;;;;;5019451;28;20218;-75
2023/06/25 06:27:14;;;;;;;2.07;1.97;;;24.70;47.70;;;;;;5015807;28;20223;-75
2023/06/25 06:29:40;;;;;;;1.83;1.73;;;24.70;47.70;;;;;;5017579;28;20264;-75
2023/06/25 06:32:06;;;;;;;2.20;2.10;;;24.70;47.60;;;;;;5018818;28;20733;-76
2023/06/25 06:34:32;;;;;;;1.80;1.70;;;24.70;47.70;;;;;;5016602;28;20720;-75
2023/06/25 06:36:57;;;;;;;1.90;1.80;;;24.70;47.70;;;;;;5009256;28;20542;-75
2023/06/25 06:39:23;;;;;;;1.80;1.70;;;24.70;47.70;;;;;;5013786;28;20220;-75
2023/06/25 06:41:48;;;;;;;1.70;1.60;;;24.70;47.60;;;;;;5008366;28;20616;-75
2023/06/25 06:44:15;;;;;;;1.93;1.83;;;24.70;47.70;;;;;;5016300;28;20215;-75
2023/06/25 06:46:41;;;;;;;1.83;1.73;;;24.70;47.70;;;;;;5014877;28;20222;-76
2023/06/25 06:49:08;;;;;;;2.23;2.13;;;24.70;47.70;;;;;;5021462;28;20462;-75
2023/06/25 06:51:33;;;;;;;1.70;1.60;;;24.70;47.70;;;;;;5019960;28;20471;-75
2023/06/25 06:53:59;;;;;;;2.10;1.90;;;24.70;47.70;;;;;;5022762;28;20984;-75
2023/06/25 06:56:25;;;;;;;1.87;1.77;;;24.70;47.70;;;;;;5018985;28;20226;-75
2023/06/25 06:58:51;;;;;;;2.03;1.93;;;24.70;47.70;;;;;;5007551;28;20229;-75
2023/06/25 07:01:16;;;;;;;1.73;1.63;;;24.70;47.70;;;;;;4997409;28;20903;-76
2023/06/25 07:03:42;;;;;;;2.07;1.97;;;24.70;47.60;;;;;;5008457;28;20249;-76
2023/06/25 07:06:08;;;;;;;2.10;2.00;;;24.70;47.70;;;;;;5019251;28;20309;-75
2023/06/25 07:08:33;;;;;;;1.80;1.70;;;24.70;47.60;;;;;;5022230;28;20233;-75
2023/06/25 07:10:59;;;;;;;1.80;1.70;;;24.70;47.60;;;;;;5021581;28;20230;-75
2023/06/25 07:13:25;;;;;;;1.90;1.80;;;24.70;47.60;;;;;;5018114;28;20268;-75
2023/06/25 07:15:50;;;;;;;1.90;1.80;;;24.80;47.70;;;;;;5009255;28;20317;-75
2023/06/25 07:18:16;;;;;;;2.13;2.03;;;24.70;47.60;;;;;;5012122;28;20226;-75
2023/06/25 07:20:41;;;;;;;1.90;1.80;;;24.80;47.60;;;;;;5002791;28;20225;-75
2023/06/25 07:23:07;;;;;;;1.73;1.63;;;24.80;47.60;;;;;;5012761;28;20313;-76
2023/06/25 07:25:32;;;;;;;2.53;2.43;;;24.80;47.60;;;;;;5020661;28;20237;-75
2023/06/25 07:27:58;;;;;;;2.37;2.27;;;24.80;47.60;;;;;;5020634;28;20226;-75
2023/06/25 07:30:23;;;;;;;1.90;1.80;;;24.80;47.60;;;;;;5024092;28;20218;-75
2023/06/25 07:32:49;;;;;;;2.07;1.97;;;24.80;47.60;;;;;;5025126;28;20223;-75
2023/06/25 07:35:14;;;;;;;2.20;2.10;;;24.80;47.50;;;;;;5014198;28;20313;-75
2023/06/25 07:37:40;;;;;;;2.50;2.27;;;24.80;47.50;;;;;;5016076;28;20280;-75
2023/06/25 07:40:06;;;;;;;2.00;1.90;;;24.80;47.60;;;;;;5014677;28;20227;-75
2023/06/25 07:42:32;;;;;;;2.23;1.97;;;24.80;47.50;;;;;;5017633;28;20222;-75
2023/06/25 07:44:57;;;;;;;2.27;2.17;;;24.80;47.50;;;;;;5020119;28;20998;-75
2023/06/25 07:47:24;;;;;;;2.00;1.90;;;24.80;47.50;;;;;;5012267;28;20297;-74
2023/06/25 07:49:49;;;;;;;2.10;2.00;;;24.80;47.50;;;;;;5024153;28;20313;-74
2023/06/25 07:52:15;;;;;;;2.00;1.90;;;24.80;47.50;;;;;;5022969;28;20550;-75
2023/06/25 07:54:40;;;;;;;2.03;1.93;;;24.80;47.50;;;;;;5026265;28;20234;-75
2023/06/25 07:57:06;;;;;;;2.37;2.27;;;24.80;47.50;;;;;;5012724;28;20223;-75
2023/06/25 07:59:32;;;;;;;2.33;2.13;;;24.80;47.50;;;;;;5024803;28;20227;-75
2023/06/25 08:01:58;;;;;;;2.07;1.97;;;24.80;47.50;;;;;;5034338;28;20313;-75
2023/06/25 08:04:24;;;;;;;2.33;2.23;;;24.80;47.50;;;;;;5027330;28;20511;-75
2023/06/25 08:06:49;;;;;;;1.80;1.70;;;24.80;47.50;;;;;;5023744;28;20219;-75
2023/06/25 08:09:15;;;;;;;2.10;2.00;;;24.80;47.50;;;;;;5028176;28;20222;-75
2023/06/25 08:11:40;;;;;;;1.97;1.87;;;24.80;47.50;;;;;;5024756;28;20222;-75
2023/06/25 08:14:08;;;;;;;2.20;2.10;;;24.80;47.50;;;;;;5023266;28;20210;-75
2023/06/25 08:16:34;;;;;;;2.60;2.50;;;24.80;47.50;;;;;;5022990;28;20230;-74
2023/06/25 08:19:00;;;;;;;2.30;2.20;;;24.80;47.50;;;;;;5006530;28;20480;-75
2023/06/25 08:21:26;;;;;;;1.80;1.70;;;24.80;47.60;;;;;;5003206;28;20227;-75
2023/06/25 08:23:52;;;;;;;2.57;2.47;;;24.80;47.50;;;;;;5005337;28;20698;-75
2023/06/25 08:26:18;;;;;;;2.13;2.03;;;24.80;47.50;;;;;;5011486;28;20455;-75
2023/06/25 08:28:43;;;;;;;2.33;2.23;;;24.80;47.50;;;;;;5026283;28;20300;-75
2023/06/25 08:31:10;;;;;;;2.77;2.57;;;24.80;47.50;;;;;;5018381;28;20221;-75
2023/06/25 08:33:39;;;;;;;2.30;2.20;;;24.80;47.60;;;;;;5020811;28;20805;-75
2023/06/25 08:36:05;;;;;;;2.47;2.37;;;24.80;47.60;;;;;;5019769;28;20555;-75
2023/06/25 08:38:32;;;;;;;2.53;2.37;;;24.80;47.60;;;;;;5019364;28;20534;-75
2023/06/25 08:40:58;;;;;;;2.43;2.23;;;24.80;47.60;;;;;;5015967;28;20690;-75
2023/06/25 08:43:24;;;;;;;2.10;2.00;;;24.80;47.60;;;;;;5020451;28;20447;-75
2023/06/25 08:45:49;;;;;;;2.17;2.07;;;24.80;47.60;;;;;;5018707;28;20590;-75
2023/06/25 08:48:17;;;;;;;2.37;2.27;;;24.80;47.60;;;;;;5015323;28;20311;-75
2023/06/25 08:50:49;;;;;;;2.10;2.00;;;24.80;47.60;;;;;;5015759;28;20214;-75
2023/06/25 08:53:14;;;;;;;2.43;2.33;;;24.80;47.60;;;;;;5010750;28;20479;-75
2023/06/25 08:55:41;;;;;;;2.33;2.23;;;24.80;47.60;;;;;;5024534;28;20451;-75
2023/06/25 08:58:07;;;;;;;2.13;2.03;;;24.80;47.70;;;;;;5035037;28;20226;-74
2023/06/25 09:00:32;;;;;;;2.60;2.50;;;24.90;47.80;;;;;;5009586;28;20457;-74
2023/06/25 09:02:58;;;;;;;2.50;2.40;;;24.80;47.60;;;;;;5017069;28;20280;-75
2023/06/25 09:05:26;;;;;;;2.33;2.13;;;24.80;47.60;;;;;;5012759;28;20234;-74
2023/06/25 09:07:51;;;;;;;2.80;2.70;;;24.80;47.70;;;;;;5020963;28;20560;-74
2023/06/25 09:10:19;;;;;;;2.07;1.97;;;24.80;47.70;;;;;;5019938;28;20452;-74
2023/06/25 09:12:47;;;;;;;2.23;2.13;;;24.80;47.70;;;;;;5015789;28;20709;-75
2023/06/25 09:15:12;;;;;;;2.97;2.77;;;24.80;47.70;;;;;;5010948;28;20468;-75
2023/06/25 09:17:38;;;;;;;2.17;2.07;;;24.90;47.80;;;;;;5027179;28;20489;-75
2023/06/25 09:20:05;;;;;;;2.10;2.00;;;24.90;47.80;;;;;;5020534;28;20250;-75
2023/06/25 09:22:31;;;;;;;2.60;2.50;;;24.90;47.80;;;;;;5025723;28;20710;-75
2023/06/25 09:24:57;;;;;;;2.10;2.00;;;24.90;47.80;;;;;;5017132;28;20510;-74
2023/06/25 09:27:22;;;;;;;2.73;2.63;;;24.90;47.80;;;;;;5004279;28;20449;-74
2023/06/25 09:29:49;;;;;;;1.93;1.83;;;24.90;47.80;;;;;;5017870;28;20505;-75
2023/06/25 09:32:17;;;;;;;2.23;2.13;;;24.90;47.80;;;;;;5023270;28;20223;-75
2023/06/25 09:34:45;;;;;;;2.20;2.10;;;24.90;47.80;;;;;;5024093;28;20820;-75
2023/06/25 09:37:11;;;;;;;2.13;2.03;;;24.90;47.80;;;;;;5008841;28;20845;-75
2023/06/25 09:39:37;;;;;;;2.20;2.10;;;24.90;47.80;;;;;;5025029;28;20444;-75
2023/06/25 09:42:04;;;;;;;2.00;1.90;;;24.90;47.80;;;;;;5008760;28;20249;-75
2023/06/25 09:44:30;;;;;;;2.33;2.23;;;24.90;47.80;;;;;;5023078;28;20222;-75
2023/06/25 09:47:01;;;;;;;2.33;2.23;;;24.90;47.80;;;;;;5022306;28;20479;-75
2023/06/25 09:49:31;;;;;;;2.30;2.20;;;24.90;47.80;;;;;;5021215;28;20428;-75
2023/06/25 09:52:07;;;;;;;2.37;2.27;;;24.90;47.80;;;;;;5022147;28;21013;-75
2023/06/25 09:54:34;;;;;;;2.53;2.43;;;24.90;47.90;;;;;;5017375;28;20894;-75
2023/06/25 09:57:02;;;;;;;2.40;2.30;;;24.90;47.80;;;;;;5021971;28;20962;-75
2023/06/25 09:59:28;;;;;;;2.63;2.53;;;24.90;47.80;;;;;;5002769;28;20475;-75
2023/06/25 10:01:54;;;;;;;2.90;2.80;;;24.90;47.80;;;;;;5022741;28;20851;-75
2023/06/25 10:04:21;;;;;;;2.63;2.43;;;24.90;47.80;;;;;;5010967;28;20242;-75
2023/06/25 10:06:48;;;;;;;2.67;2.53;;;24.90;47.90;;;;;;5019460;28;20456;-75
2023/06/25 10:09:13;;;;;;;2.30;2.20;;;24.90;47.80;;;;;;4997813;28;20476;-75
2023/06/25 10:11:54;;;;;;;2.47;2.37;;;24.90;47.90;;;;;;5006468;28;20534;-76
2023/06/25 10:14:21;;;;;;;2.30;2.20;;;24.90;47.90;;;;;;5005991;28;20635;-75
2023/06/25 10:16:54;;;;;;;2.40;2.30;;;24.90;47.90;;;;;;5014712;28;20463;-75
2023/06/25 10:19:29;;;;;;;2.57;2.47;;;24.90;47.80;;;;;;5017346;28;20997;-75
2023/06/25 10:22:11;;;;;;;2.20;2.10;;;24.90;47.80;;;;;;5023063;28;20551;-75
2023/06/25 10:24:41;;;;;;;3.13;3.00;;;24.90;47.90;;;;;;5016321;28;20502;-75
2023/06/25 10:27:26;;;;;;;2.40;2.30;;;24.90;47.90;;;;;;5029398;28;20479;-75
2023/06/25 10:29:59;;;;;;;2.53;2.40;;;24.90;47.90;;;;;;5014064;28;20475;-75
2023/06/25 10:32:29;;;;;;;2.60;2.50;;;24.90;47.90;;;;;;5022217;28;21421;-75
2023/06/25 10:34:58;;;;;;;3.07;2.97;;;24.90;47.90;;;;;;5017010;28;20463;-75
2023/06/25 10:37:35;;;;;;;2.23;2.13;;;24.90;47.90;;;;;;5016644;28;20439;-75
2023/06/25 10:40:09;;;;;;;2.50;2.40;;;24.90;47.90;;;;;;5014202;28;20452;-75
2023/06/25 10:42:36;;;;;;;2.60;2.50;;;24.90;47.80;;;;;;5013346;28;21082;-75
2023/06/25 10:45:03;;;;;;;2.47;2.37;;;24.90;47.80;;;;;;5010533;28;20462;-75
2023/06/25 10:47:29;;;;;;;2.70;2.60;;;24.90;47.80;;;;;;5017098;28;20448;-75
2023/06/25 10:49:55;;;;;;;2.20;2.10;;;24.90;47.90;;;;;;5022277;28;20458;-75
2023/06/25 10:52:21;;;;;;;2.83;2.63;;;24.90;47.80;;;;;;5016573;28;20313;-75
2023/06/25 10:54:46;;;;;;;2.47;2.37;;;25.00;47.90;;;;;;5023700;28;20239;-75
2023/06/25 10:57:14;;;;;;;2.40;2.30;;;24.90;47.80;;;;;;5017963;28;20671;-75
2023/06/25 10:59:40;;;;;;;2.40;2.30;;;25.00;47.90;;;;;;5018614;28;20216;-75
2023/06/25 11:02:10;;;;;;;2.60;2.50;;;25.00;47.90;;;;;;5017566;28;20506;-75
2023/06/25 11:04:35;;;;;;;2.27;2.17;;;25.00;47.90;;;;;;5021793;28;20947;-75
2023/06/25 11:07:01;;;;;;;2.50;2.30;;;25.00;47.90;;;;;;5017012;28;20447;-75
2023/06/25 11:09:28;;;;;;;2.70;2.60;;;25.00;48.00;;;;;;5023913;28;20279;-75
2023/06/25 11:11:53;;;;;;;2.27;2.17;;;25.00;47.90;;;;;;5019745;28;20227;-75
2023/06/25 11:14:19;;;;;;;2.50;2.40;;;25.00;48.00;;;;;;5018634;28;21266;-75
2023/06/25 11:16:47;;;;;;;2.70;2.60;;;25.00;47.90;;;;;;5017447;28;20620;-75
2023/06/25 11:19:13;;;;;;;2.60;2.50;;;25.00;47.80;;;;;;5018983;28;20249;-75
2023/06/25 11:21:39;;;;;;;2.40;2.30;;;25.00;47.80;;;;;;5023544;28;20487;-75
2023/06/25 11:24:08;;;;;;;2.57;2.40;;;25.00;47.90;;;;;;5025088;28;20228;-75
2023/06/25 11:26:43;;;;;;;2.23;2.13;;;25.00;47.80;;;;;;5009000;28;21209;-75
2023/06/25 11:29:10;;;;;;;2.33;2.23;;;25.00;47.80;;;;;;5014515;28;21107;-75
2023/06/25 11:31:52;;;;;;;2.60;2.50;;;25.00;47.80;;;;;;5020171;28;20479;-75
2023/06/25 11:34:25;;;;;;;2.30;2.20;;;25.00;47.90;;;;;;5019835;28;20456;-75
2023/06/25 11:36:51;;;;;;;2.43;2.33;;;25.00;47.80;;;;;;5024434;28;20460;-75
2023/06/25 11:39:17;;;;;;;2.60;2.50;;;25.00;47.90;;;;;;5021347;28;20531;-75
2023/06/25 11:41:43;;;;;;;2.53;2.43;;;25.00;47.90;;;;;;5024338;28;20542;-75
2023/06/25 11:44:19;;;;;;;2.90;2.80;;;25.00;47.90;;;;;;5018242;28;20261;-75
2023/06/25 11:46:51;;;;;;;2.97;2.77;;;25.00;47.90;;;;;;5011598;28;20505;-75
2023/06/25 11:49:18;;;;;;;2.70;2.60;;;25.00;47.80;;;;;;5009812;28;20494;-75
2023/06/25 11:51:44;;;;;;;3.20;3.00;;;25.00;48.00;;;;;;5015809;28;20582;-75
2023/06/25 11:54:10;;;;;;;2.83;2.73;;;25.00;47.80;;;;;;5024001;28;20467;-75
2023/06/25 11:56:35;;;;;;;3.20;3.10;;;25.00;47.90;;;;;;5015412;28;20998;-75
2023/06/25 11:59:01;;;;;;;2.90;2.80;;;25.00;47.80;;;;;;5016175;28;20222;-75
2023/06/25 12:01:29;;;;;;;3.10;2.90;;;25.00;47.80;;;;;;5020135;28;20223;-75
2023/06/25 12:03:54;;;;;;;3.30;3.10;;;25.00;47.70;;;;;;5009358;28;20234;-75
2023/06/25 12:06:20;;;;;;;3.00;2.90;;;25.00;47.80;;;;;;5023274;28;20963;-75
2023/06/25 12:08:45;;;;;;;4.00;3.80;;;25.00;47.70;;;;;;5025524;28;20234;-75
2023/06/25 12:11:11;;;;;;;3.40;3.20;;;25.00;47.70;;;;;;5019687;28;20222;-75
2023/06/25 12:13:36;;;;;;;2.80;2.70;;;25.00;47.80;;;;;;5026195;28;20225;-75
2023/06/25 12:16:02;;;;;;;18.93;4.30;;;25.00;47.70;;;;;;5018301;28;20222;-75
2023/06/25 12:18:27;;;;;;;4.00;3.30;;;25.00;47.70;;;;;;5024443;28;20396;-75
2023/06/25 12:20:53;;;;;;;3.50;3.30;;;25.00;47.70;;;;;;5009265;28;20231;-75
2023/06/25 12:23:19;;;;;;;3.00;2.80;;;25.00;47.70;;;;;;5012384;28;20257;-75
2023/06/25 12:25:44;;;;;;;3.37;3.23;;;25.00;47.70;;;;;;5017187;28;20317;-75
2023/06/25 12:28:10;;;;;;;2.80;2.70;;;25.00;47.70;;;;;;5025429;28;20234;-76
2023/06/25 12:30:35;;;;;;;3.57;3.37;;;25.00;47.60;;;;;;5018333;28;20223;-75
2023/06/25 12:33:01;;;;;;;3.30;3.20;;;25.00;47.60;;;;;;5007722;28;20211;-75
2023/06/25 12:35:28;;;;;;;3.73;3.53;;;25.00;47.60;;;;;;5020372;28;20221;-75
2023/06/25 12:37:53;;;;;;;3.13;2.93;;;25.00;47.60;;;;;;5026921;28;20804;-75
2023/06/25 12:40:19;;;;;;;3.00;2.80;;;25.00;47.60;;;;;;5024590;28;20453;-75
2023/06/25 12:42:45;;;;;;;3.60;3.40;;;25.00;47.60;;;;;;5025076;28;20787;-75
2023/06/25 12:45:10;;;;;;;3.50;3.30;;;25.00;47.60;;;;;;5020632;28;20237;-75